Time;durP1;ratioP1;P1;durP2;ratioP2;P2;SDS_P1;SDS_P2;PMS_P1;PMS_P2;Temp;Humidity;BMP_temperature;BMP_pressure;BME280_temperature;BME280_humidity;BME280_pressure;Samples;Min_cycle;Max_cycle;Signal;HPM_P1;HPM_P2
2021/09/12 00:01:52;;;;;;;32.63;15.68;;;;;;;10.88;82.83;94745.34;1683931;83;21090;-60
2021/09/12 00:04:18;;;;;;;23.00;14.28;;;;;;;10.84;82.93;94737.83;1692255;83;21841;-60
2021/09/12 00:06:45;;;;;;;37.85;14.98;;;;;;;10.82;82.74;94749.28;1689357;83;21164;-60
2021/09/12 00:09:12;;;;;;;22.55;13.85;;;;;;;10.74;82.76;94749.39;1709586;83;21508;-58
2021/09/12 00:11:38;;;;;;;23.18;13.70;;;;;;;10.70;82.80;94743.84;1712651;83;21036;-60
2021/09/12 00:14:05;;;;;;;37.17;15.18;;;;;;;10.67;82.88;94739.83;1701293;83;21543;-60
2021/09/12 00:16:31;;;;;;;33.80;16.77;;;;;;;10.64;82.96;94748.39;1692600;83;21090;-60
2021/09/12 00:19:00;;;;;;;51.73;27.95;;;;;;;10.58;83.14;94743.91;1705477;83;20948;-60
2021/09/12 00:21:26;;;;;;;32.67;12.90;;;;;;;10.54;83.09;94739.89;1692185;83;21018;-59
2021/09/12 00:23:54;;;;;;;27.75;15.08;;;;;;;10.52;83.29;94737.45;1690746;83;20969;-60
2021/09/12 00:26:20;;;;;;;27.98;13.32;;;;;;;10.51;83.64;94736.67;1687580;83;21061;-59
2021/09/12 00:28:47;;;;;;;35.48;13.88;;;;;;;10.50;83.51;94740.63;1694698;83;21886;-59
2021/09/12 00:31:14;;;;;;;28.45;12.85;;;;;;;10.49;83.52;94742.47;1707088;83;21031;-60
2021/09/12 00:33:41;;;;;;;24.95;12.10;;;;;;;10.44;83.46;94744.39;1705534;83;21427;-60
2021/09/12 00:36:08;;;;;;;34.48;12.78;;;;;;;10.36;83.51;94745.24;1707423;83;21044;-59
2021/09/12 00:38:35;;;;;;;29.90;12.30;;;;;;;10.28;83.69;94748.09;1689960;83;21605;-61
2021/09/12 00:41:02;;;;;;;30.00;13.22;;;;;;;10.26;84.01;94742.86;1706497;83;21148;-59
2021/09/12 00:43:28;;;;;;;23.70;12.23;;;;;;;10.25;83.93;94748.98;1712144;83;21047;-61
2021/09/12 00:45:56;;;;;;;25.70;12.47;;;;;;;10.20;83.96;94746.02;1681603;83;21105;-59
2021/09/12 00:48:24;;;;;;;17.32;10.70;;;;;;;10.14;84.17;94746.44;1667688;85;20978;-59
2021/09/12 00:50:51;;;;;;;30.23;13.03;;;;;;;10.11;84.22;94744.55;1669475;85;20943;-60
2021/09/12 00:53:18;;;;;;;28.15;11.35;;;;;;;10.08;84.50;94743.47;1678085;84;21154;-59
2021/09/12 00:55:45;;;;;;;31.42;12.93;;;;;;;10.10;84.52;94747.92;1691461;83;21043;-60
2021/09/12 00:58:15;;;;;;;25.40;12.10;;;;;;;10.14;84.48;94747.19;1690951;83;21073;-60
2021/09/12 01:00:43;;;;;;;23.92;12.58;;;;;;;10.15;84.25;94749.34;1686439;83;21021;-59
2021/09/12 01:03:11;;;;;;;19.50;12.15;;;;;;;10.16;83.91;94748.13;1681824;83;21053;-60
2021/09/12 01:05:38;;;;;;;20.48;11.15;;;;;;;10.14;83.56;94749.94;1663931;86;21135;-60
2021/09/12 01:08:06;;;;;;;25.48;12.93;;;;;;;10.15;83.53;94758.34;1665364;83;21550;-61
2021/09/12 01:10:34;;;;;;;25.05;11.78;;;;;;;10.11;83.66;94754.17;1695046;83;21052;-60
2021/09/12 01:13:04;;;;;;;18.92;13.10;;;;;;;10.06;83.84;94754.73;1677868;83;21574;-60
2021/09/12 01:15:32;;;;;;;24.40;12.65;;;;;;;10.03;83.83;94750.91;1681308;84;21076;-60
2021/09/12 01:18:00;;;;;;;22.05;12.13;;;;;;;10.03;83.74;94745.42;1687616;83;21322;-59
2021/09/12 01:20:28;;;;;;;30.95;16.77;;;;;;;10.04;83.63;94748.92;1701847;83;21016;-59
2021/09/12 01:22:56;;;;;;;22.07;13.93;;;;;;;10.05;83.89;94747.70;1691541;83;21560;-59
2021/09/12 01:25:23;;;;;;;21.35;14.13;;;;;;;10.04;84.14;94742.83;1689807;83;20979;-60
2021/09/12 01:27:49;;;;;;;21.50;14.50;;;;;;;10.00;84.08;94747.63;1688281;83;21579;-60
2021/09/12 01:30:18;;;;;;;28.55;13.32;;;;;;;9.94;84.05;94747.25;1685167;83;20998;-60
2021/09/12 01:32:44;;;;;;;21.80;12.80;;;;;;;9.85;83.90;94747.95;1701713;83;21045;-60
2021/09/12 01:35:11;;;;;;;21.27;12.23;;;;;;;9.80;83.92;94741.61;1701191;82;21571;-59
2021/09/12 01:37:41;;;;;;;27.77;14.65;;;;;;;9.80;83.95;94742.23;1690526;83;21580;-59
2021/09/12 01:40:10;;;;;;;19.12;12.15;;;;;;;9.81;83.91;94743.15;1699180;83;21059;-61
2021/09/12 01:42:37;;;;;;;22.90;13.00;;;;;;;9.80;83.80;94736.74;1697160;83;21500;-60
2021/09/12 01:45:07;;;;;;;25.60;12.50;;;;;;;9.82;83.79;94741.19;1696514;83;21107;-61
2021/09/12 01:47:33;;;;;;;24.82;12.80;;;;;;;9.82;83.80;94735.07;1699389;83;21565;-59
2021/09/12 01:50:00;;;;;;;18.65;11.85;;;;;;;9.87;83.76;94737.28;1680489;83;21097;-60
2021/09/12 01:52:27;;;;;;;16.27;11.95;;;;;;;9.90;83.39;94739.14;1708377;83;21702;-60
2021/09/12 01:54:55;;;;;;;28.32;12.70;;;;;;;9.90;83.21;94743.27;1692473;83;21089;-60
2021/09/12 01:57:22;;;;;;;19.20;12.43;;;;;;;9.91;83.14;94748.14;1673323;83;21377;-61
2021/09/12 01:59:48;;;;;;;20.20;12.80;;;;;;;9.91;83.12;94742.64;1673996;83;21025;-60
2021/09/12 02:02:15;;;;;;;17.35;10.98;;;;;;;9.86;83.25;94740.46;1685500;83;21094;-60
2021/09/12 02:04:41;;;;;;;20.68;11.38;;;;;;;9.78;83.08;94740.54;1681386;83;21530;-59
2021/09/12 02:07:08;;;;;;;20.92;11.03;;;;;;;9.68;83.24;94737.52;1697340;83;21134;-60
2021/09/12 02:09:36;;;;;;;28.73;12.90;;;;;;;9.64;83.61;94745.11;1697336;83;21000;-60
2021/09/12 02:12:04;;;;;;;20.97;14.25;;;;;;;9.59;83.60;94749.78;1685061;83;21053;-60
2021/09/12 02:14:31;;;;;;;23.87;13.65;;;;;;;9.51;83.68;94753.95;1687441;84;20973;-59
2021/09/12 02:16:59;;;;;;;21.82;13.20;;;;;;;9.45;83.92;94741.98;1696386;83;21058;-60
2021/09/12 02:19:26;;;;;;;22.52;11.68;;;;;;;9.42;84.00;94748.36;1701186;83;21781;-60
2021/09/12 02:21:52;;;;;;;29.80;12.88;;;;;;;9.43;84.03;94751.27;1690941;83;20957;-60
2021/09/12 02:24:19;;;;;;;23.32;11.70;;;;;;;9.41;83.86;94746.20;1694213;83;21060;-60
2021/09/12 02:26:46;;;;;;;27.70;13.93;;;;;;;9.40;83.84;94737.05;1699969;83;21035;-60
2021/09/12 02:29:12;;;;;;;18.80;12.40;;;;;;;9.38;83.70;94734.73;1699064;83;21152;-60
2021/09/12 02:31:39;;;;;;;15.00;10.95;;;;;;;9.36;83.62;94736.37;1686420;83;21087;-60
2021/09/12 02:34:06;;;;;;;24.85;11.30;;;;;;;9.32;83.46;94735.72;1700842;83;21575;-61
2021/09/12 02:36:33;;;;;;;21.62;12.45;;;;;;;9.27;83.36;94733.53;1703367;83;21107;-60
2021/09/12 02:39:01;;;;;;;29.15;13.70;;;;;;;9.29;83.61;94731.11;1694687;83;21648;-60
2021/09/12 02:41:28;;;;;;;22.20;13.78;;;;;;;9.28;83.54;94740.55;1694932;83;21012;-60
2021/09/12 02:43:55;;;;;;;23.12;13.83;;;;;;;9.27;83.68;94739.02;1705695;83;21150;-60
2021/09/12 02:46:22;;;;;;;22.25;11.70;;;;;;;9.24;83.77;94737.16;1680521;83;21519;-60
2021/09/12 02:48:49;;;;;;;25.88;11.60;;;;;;;9.22;83.67;94729.96;1693774;83;21097;-60
2021/09/12 02:51:17;;;;;;;19.77;10.63;;;;;;;9.18;83.70;94740.25;1711422;83;21056;-60
2021/09/12 02:53:44;;;;;;;31.20;12.15;;;;;;;9.11;83.69;94740.48;1681231;83;21045;-60
2021/09/12 02:56:10;;;;;;;43.13;12.95;;;;;;;9.01;83.85;94734.69;1700688;83;21111;-59
2021/09/12 02:58:39;;;;;;;29.15;13.08;;;;;;;8.95;84.25;94733.12;1699362;83;21563;-60
2021/09/12 03:01:07;;;;;;;21.77;11.28;;;;;;;8.92;84.48;94733.96;1716828;83;21044;-60
2021/09/12 03:03:34;;;;;;;27.80;13.10;;;;;;;8.90;84.49;94728.77;1697111;83;21044;-60
2021/09/12 03:06:01;;;;;;;22.98;13.43;;;;;;;8.85;84.47;94735.39;1688399;83;21623;-60
2021/09/12 03:08:28;;;;;;;23.95;13.22;;;;;;;8.76;84.48;94735.27;1700763;83;21155;-60
2021/09/12 03:10:56;;;;;;;24.20;12.33;;;;;;;8.67;84.67;94731.02;1690983;83;37337;-60
2021/09/12 03:13:23;;;;;;;23.73;12.58;;;;;;;8.59;84.66;94735.92;1686634;83;20946;-61
2021/09/12 03:15:50;;;;;;;13.65;10.68;;;;;;;8.50;84.65;94734.43;1684911;83;20956;-59
2021/09/12 03:18:16;;;;;;;19.12;12.23;;;;;;;8.45;84.80;94739.67;1670963;84;21152;-60
2021/09/12 03:20:44;;;;;;;17.80;12.65;;;;;;;8.43;85.09;94733.23;1692250;83;21372;-60
2021/09/12 03:23:11;;;;;;;21.77;15.03;;;;;;;8.46;85.49;94735.10;1712454;83;20965;-60
2021/09/12 03:25:39;;;;;;;50.38;27.55;;;;;;;8.51;85.61;94737.92;1701802;83;21019;-60
2021/09/12 03:28:06;;;;;;;44.23;22.85;;;;;;;8.51;85.29;94734.59;1696186;83;21076;-60
2021/09/12 03:30:32;;;;;;;48.30;25.88;;;;;;;8.48;85.02;94734.09;1697572;83;21704;-59
2021/09/12 03:32:59;;;;;;;121.70;67.20;;;;;;;8.47;85.07;94735.27;1708191;83;21831;-60
2021/09/12 03:35:26;;;;;;;164.00;95.55;;;;;;;8.50;85.04;94738.54;1698604;83;21091;-60
2021/09/12 03:37:52;;;;;;;130.65;73.85;;;;;;;8.51;84.95;94739.30;1701826;83;21488;-60
2021/09/12 03:40:19;;;;;;;119.42;68.22;;;;;;;8.54;84.97;94737.05;1709735;83;21135;-59
2021/09/12 03:42:46;;;;;;;94.55;53.00;;;;;;;8.55;84.87;94736.63;1678034;83;21040;-61
2021/09/12 03:45:12;;;;;;;39.05;23.10;;;;;;;8.58;84.64;94745.97;1693023;83;21157;-60
2021/09/12 03:47:39;;;;;;;25.75;17.42;;;;;;;8.59;84.53;94746.89;1679609;83;21579;-60
2021/09/12 03:50:09;;;;;;;28.05;17.57;;;;;;;8.64;84.49;94752.45;1674148;83;21013;-60
2021/09/12 03:52:38;;;;;;;26.82;16.82;;;;;;;8.69;84.37;94741.72;1690745;83;21104;-60
2021/09/12 03:55:07;;;;;;;31.95;19.30;;;;;;;8.69;83.96;94743.09;1699736;83;21089;-59
2021/09/12 03:57:35;;;;;;;37.15;23.65;;;;;;;8.66;83.51;94744.56;1701754;83;21119;-59
2021/09/12 04:00:03;;;;;;;38.48;24.95;;;;;;;8.61;83.21;94744.48;1693471;83;21645;-59
2021/09/12 04:02:31;;;;;;;29.25;14.68;;;;;;;8.56;83.28;94746.98;1692802;83;21014;-60
2021/09/12 04:04:58;;;;;;;30.35;13.20;;;;;;;8.54;83.53;94746.06;1708480;83;21080;-59
2021/09/12 04:07:27;;;;;;;30.82;13.05;;;;;;;8.45;83.82;94748.64;1682194;83;21085;-60
2021/09/12 04:09:53;;;;;;;35.78;13.28;;;;;;;8.40;84.24;94749.18;1677409;83;21150;-60
2021/09/12 04:12:20;;;;;;;30.70;12.18;;;;;;;8.35;84.25;94755.20;1691780;83;21568;-59
2021/09/12 04:14:46;;;;;;;58.42;14.40;;;;;;;8.27;84.31;94757.19;1691488;83;21023;-59
2021/09/12 04:17:15;;;;;;;49.48;12.35;;;;;;;8.18;84.47;94756.44;1704556;83;21440;-59
2021/09/12 04:19:42;;;;;;;52.25;13.72;;;;;;;8.14;84.67;94754.36;1684696;83;21045;-59
2021/09/12 04:22:09;;;;;;;43.85;14.23;;;;;;;8.13;84.80;94760.27;1699507;83;21691;-60
2021/09/12 04:24:37;;;;;;;37.25;12.80;;;;;;;8.07;85.10;94753.16;1693572;83;21089;-60
2021/09/12 04:27:06;;;;;;;27.62;13.03;;;;;;;8.06;85.37;94748.87;1707791;83;21047;-60
2021/09/12 04:29:34;;;;;;;32.53;12.18;;;;;;;8.05;85.71;94745.22;1714741;83;21051;-59
2021/09/12 04:32:03;;;;;;;36.68;13.53;;;;;;;8.06;85.92;94754.36;1690074;83;21072;-59
2021/09/12 04:34:30;;;;;;;32.00;16.17;;;;;;;8.10;86.10;94751.53;1700483;83;21306;-59
2021/09/12 04:36:56;;;;;;;29.95;17.67;;;;;;;8.14;85.89;94758.47;1675835;83;21539;-60
2021/09/12 04:39:23;;;;;;;35.60;15.50;;;;;;;8.15;86.02;94754.53;1691446;83;21016;-60
2021/09/12 04:41:50;;;;;;;25.75;14.05;;;;;;;8.20;86.04;94758.14;1678653;83;21018;-60
2021/09/12 04:44:17;;;;;;;23.45;13.18;;;;;;;8.23;86.01;94760.62;1677950;83;21043;-60
2021/09/12 04:46:44;;;;;;;43.38;13.50;;;;;;;8.27;85.85;94755.81;1685149;84;21937;-60
2021/09/12 04:49:11;;;;;;;34.90;14.68;;;;;;;8.26;85.62;94753.66;1687391;83;21052;-58
2021/09/12 04:51:39;;;;;;;23.20;14.00;;;;;;;8.21;85.79;94757.55;1677469;83;21067;-60
2021/09/12 04:54:06;;;;;;;25.27;14.50;;;;;;;8.18;86.10;94745.47;1671540;83;21044;-60
2021/09/12 04:56:32;;;;;;;26.55;12.60;;;;;;;8.23;86.28;94749.05;1668958;85;21435;-59
2021/09/12 04:59:00;;;;;;;28.12;13.65;;;;;;;8.30;86.48;94748.88;1681055;83;21051;-59
2021/09/12 05:01:29;;;;;;;24.47;14.70;;;;;;;8.37;86.31;94751.42;1697440;84;21048;-60
2021/09/12 05:03:56;;;;;;;23.95;12.70;;;;;;;8.45;86.47;94752.75;1678272;83;21061;-61
2021/09/12 05:06:23;;;;;;;26.50;12.88;;;;;;;8.53;86.28;94751.38;1679143;83;21017;-60
2021/09/12 05:08:50;;;;;;;20.45;12.85;;;;;;;8.55;86.10;94755.82;1698962;83;20957;-60
2021/09/12 05:11:18;;;;;;;25.95;12.40;;;;;;;8.56;86.13;94751.88;1695876;83;21039;-60
2021/09/12 05:13:47;;;;;;;19.60;11.88;;;;;;;8.60;86.24;94748.42;1708531;83;21515;-60
2021/09/12 05:16:13;;;;;;;21.85;13.22;;;;;;;8.69;86.40;94747.80;1681590;83;21032;-59
2021/09/12 05:18:41;;;;;;;21.23;12.80;;;;;;;8.77;86.43;94739.55;1701952;84;21480;-60
2021/09/12 05:21:09;;;;;;;23.35;12.47;;;;;;;8.88;86.33;94740.00;1689230;83;21052;-59
2021/09/12 05:23:35;;;;;;;18.50;11.65;;;;;;;8.97;86.35;94741.67;1692271;83;21071;-60
2021/09/12 05:26:04;;;;;;;14.55;10.30;;;;;;;9.07;86.42;94739.83;1690289;83;21042;-61
2021/09/12 05:28:31;;;;;;;12.95;9.68;;;;;;;9.16;86.27;94728.36;1691944;83;21098;-59
2021/09/12 05:30:58;;;;;;;28.42;10.85;;;;;;;9.24;86.14;94726.17;1685837;83;21133;-61
2021/09/12 05:33:25;;;;;;;15.72;10.85;;;;;;;9.31;86.20;94728.69;1688728;83;21075;-62
2021/09/12 05:35:52;;;;;;;33.75;14.65;;;;;;;9.40;86.25;94726.06;1690874;83;22017;-60
2021/09/12 05:38:19;;;;;;;20.17;12.03;;;;;;;9.50;86.21;94722.20;1705124;83;21014;-60
2021/09/12 05:40:46;;;;;;;18.98;11.30;;;;;;;9.60;86.01;94727.98;1695911;83;21244;-60
2021/09/12 05:43:13;;;;;;;23.52;12.93;;;;;;;9.70;85.78;94729.60;1706607;83;21039;-60
2021/09/12 05:45:42;;;;;;;19.45;10.23;;;;;;;9.83;85.66;94722.12;1687615;83;21006;-60
2021/09/12 05:48:08;;;;;;;16.52;11.35;;;;;;;9.96;85.45;94725.62;1704011;83;21095;-60
2021/09/12 05:50:37;;;;;;;13.88;9.55;;;;;;;10.04;85.26;94722.81;1700075;83;21548;-60
2021/09/12 05:53:07;;;;;;;14.10;9.55;;;;;;;10.17;85.12;94722.17;1699263;83;21097;-60
2021/09/12 05:55:34;;;;;;;13.60;8.53;;;;;;;10.24;84.73;94720.55;1709833;83;21629;-61
2021/09/12 05:58:01;;;;;;;16.12;8.68;;;;;;;10.36;84.08;94722.49;1694055;83;21586;-60
2021/09/12 06:00:29;;;;;;;13.13;9.10;;;;;;;10.46;83.60;94719.37;1711898;83;21551;-60
2021/09/12 06:02:56;;;;;;;22.42;10.18;;;;;;;10.53;83.32;94715.60;1696950;83;21104;-60
2021/09/12 06:05:22;;;;;;;15.15;9.68;;;;;;;10.64;83.20;94725.60;1674849;83;21164;-60
2021/09/12 06:07:49;;;;;;;15.58;8.15;;;;;;;10.77;82.58;94719.59;1666805;83;21054;-60
2021/09/12 06:10:17;;;;;;;20.60;9.20;;;;;;;10.89;82.27;94727.02;1684164;83;21097;-59
2021/09/12 06:12:44;;;;;;;16.27;10.82;;;;;;;11.03;82.09;94719.63;1690783;83;21915;-61
2021/09/12 06:15:12;;;;;;;18.87;10.93;;;;;;;11.16;82.14;94717.53;1683096;83;20961;-60
2021/09/12 06:17:39;;;;;;;21.52;9.43;;;;;;;11.33;81.85;94714.70;1674471;83;21042;-61
2021/09/12 06:20:09;;;;;;;12.23;9.30;;;;;;;11.54;81.27;94710.36;1671436;83;21027;-61
2021/09/12 06:22:44;;;;;;;16.35;9.30;;;;;;;11.68;80.40;94714.72;1667052;83;21364;-60
2021/09/12 06:25:11;;;;;;;14.53;8.05;;;;;;;11.82;80.01;94706.48;1689086;83;21812;-60
2021/09/12 06:27:39;;;;;;;11.18;8.95;;;;;;;11.97;78.88;94703.31;1706415;83;21111;-61
2021/09/12 06:30:08;;;;;;;16.12;9.08;;;;;;;12.04;77.80;94707.17;1712895;83;21557;-61
2021/09/12 06:32:36;;;;;;;16.12;9.10;;;;;;;12.11;77.42;94707.62;1684376;83;21107;-60
2021/09/12 06:35:03;;;;;;;14.45;8.70;;;;;;;12.24;76.92;94704.12;1666879;85;21034;-60
2021/09/12 06:37:29;;;;;;;16.80;8.58;;;;;;;12.39;76.56;94707.81;1707128;83;21147;-60
2021/09/12 06:39:56;;;;;;;12.28;8.10;;;;;;;12.53;76.15;94700.91;1702675;83;20957;-60
2021/09/12 06:42:22;;;;;;;20.35;9.65;;;;;;;12.72;75.65;94708.09;1697182;83;20957;-59
2021/09/12 06:44:49;;;;;;;11.88;8.20;;;;;;;12.88;74.91;94695.98;1680798;83;21018;-61
2021/09/12 06:47:16;;;;;;;13.70;8.85;;;;;;;13.03;74.37;94701.02;1692709;83;21055;-63
2021/09/12 06:49:43;;;;;;;16.62;9.28;;;;;;;13.16;73.92;94692.73;1678798;83;21146;-60
2021/09/12 06:52:10;;;;;;;15.25;8.78;;;;;;;13.30;73.61;94694.06;1707859;83;21008;-62
2021/09/12 06:54:37;;;;;;;15.32;8.30;;;;;;;13.46;73.20;94694.45;1684520;83;21037;-60
2021/09/12 06:57:04;;;;;;;18.65;8.38;;;;;;;13.62;72.27;94692.70;1693397;83;21610;-60
2021/09/12 06:59:30;;;;;;;14.40;7.80;;;;;;;13.79;71.97;94692.47;1678515;83;20948;-59
2021/09/12 07:01:57;;;;;;;13.25;7.20;;;;;;;13.95;71.39;94692.08;1699134;83;21088;-61
2021/09/12 07:04:24;;;;;;;18.35;8.60;;;;;;;14.12;71.11;94692.42;1696745;83;21018;-62
2021/09/12 07:06:51;;;;;;;17.90;8.35;;;;;;;14.29;70.48;94692.97;1700076;83;21111;-60
2021/09/12 07:09:18;;;;;;;21.70;9.98;;;;;;;14.44;69.94;94693.15;1687136;83;21024;-60
2021/09/12 07:11:46;;;;;;;12.35;8.33;;;;;;;14.60;69.42;94696.87;1685563;82;21085;-59
2021/09/12 07:14:13;;;;;;;13.05;8.43;;;;;;;14.71;68.42;94692.95;1700538;83;21453;-63
2021/09/12 07:16:41;;;;;;;16.90;8.33;;;;;;;14.79;68.17;94692.70;1690525;83;21014;-62
2021/09/12 07:19:09;;;;;;;16.10;7.65;;;;;;;14.89;68.02;94685.08;1673645;83;21062;-61
2021/09/12 07:21:36;;;;;;;16.52;8.75;;;;;;;15.00;67.69;94690.20;1676432;83;21543;-62
2021/09/12 07:24:05;;;;;;;10.68;7.95;;;;;;;15.12;67.49;94680.07;1673137;83;21140;-64
2021/09/12 07:26:31;;;;;;;10.78;7.55;;;;;;;15.27;66.83;94680.84;1710937;83;21415;-63
2021/09/12 07:28:58;;;;;;;13.08;8.00;;;;;;;15.41;65.91;94683.66;1712106;83;21143;-61
2021/09/12 07:31:25;;;;;;;13.65;7.53;;;;;;;15.50;64.40;94677.98;1700756;83;21503;-59
2021/09/12 07:33:51;;;;;;;12.30;8.00;;;;;;;15.59;63.34;94678.50;1693641;83;21538;-60
2021/09/12 07:36:18;;;;;;;15.78;7.50;;;;;;;15.68;63.94;94677.77;1691920;83;20984;-61
2021/09/12 07:38:45;;;;;;;12.03;6.83;;;;;;;15.77;63.65;94681.80;1700282;83;22389;-62
2021/09/12 07:41:12;;;;;;;13.32;7.20;;;;;;;15.83;61.99;94679.89;1670831;83;20969;-60
2021/09/12 07:43:39;;;;;;;13.58;7.28;;;;;;;15.89;61.38;94687.66;1685975;83;21047;-62
2021/09/12 07:46:06;;;;;;;9.48;7.67;;;;;;;15.95;61.33;94682.95;1685380;84;21055;-61
2021/09/12 07:48:33;;;;;;;10.50;7.53;;;;;;;16.03;61.65;94677.16;1695362;83;21172;-61
2021/09/12 07:50:59;;;;;;;11.05;7.05;;;;;;;16.12;61.15;94679.03;1679697;83;21123;-61
2021/09/12 07:53:26;;;;;;;18.10;7.42;;;;;;;16.21;61.17;94682.45;1697012;83;21095;-61
2021/09/12 07:55:53;;;;;;;9.93;6.70;;;;;;;16.33;60.88;94674.41;1700086;83;20980;-60
2021/09/12 07:58:19;;;;;;;11.85;6.62;;;;;;;16.43;60.36;94671.65;1701503;83;21023;-61
2021/09/12 08:00:46;;;;;;;11.80;6.92;;;;;;;16.55;59.71;94667.77;1704261;83;21098;-60
2021/09/12 08:03:12;;;;;;;10.00;6.92;;;;;;;16.68;58.75;94677.88;1671857;83;21110;-60
2021/09/12 08:05:40;;;;;;;11.55;6.65;;;;;;;16.79;57.82;94670.45;1706757;83;21011;-61
2021/09/12 08:08:06;;;;;;;11.90;6.42;;;;;;;16.93;57.36;94670.21;1700812;82;21556;-62
2021/09/12 08:10:33;;;;;;;13.85;6.55;;;;;;;17.06;56.86;94673.39;1691274;83;21523;-63
2021/09/12 08:13:00;;;;;;;10.78;6.83;;;;;;;17.20;56.45;94673.27;1693188;83;20988;-61
2021/09/12 08:15:28;;;;;;;19.00;7.15;;;;;;;17.35;56.35;94660.66;1691631;83;21815;-60
2021/09/12 08:17:54;;;;;;;9.05;6.05;;;;;;;17.52;55.95;94664.34;1678918;83;21144;-60
2021/09/12 08:20:21;;;;;;;10.28;5.92;;;;;;;17.66;55.26;94661.41;1694849;83;21417;-60
2021/09/12 08:22:48;;;;;;;7.72;5.72;;;;;;;17.82;54.56;94664.20;1687817;83;21065;-59
2021/09/12 08:25:16;;;;;;;19.32;6.47;;;;;;;17.92;54.09;94648.20;1703643;83;21051;-60
2021/09/12 08:27:44;;;;;;;10.15;6.22;;;;;;;18.06;54.00;94644.50;1674262;83;21693;-61
2021/09/12 08:30:11;;;;;;;12.58;6.87;;;;;;;18.22;53.88;94644.58;1706730;83;21143;-60
2021/09/12 08:32:38;;;;;;;7.87;5.78;;;;;;;18.34;53.62;94643.41;1689827;83;21065;-62
2021/09/12 08:35:07;;;;;;;8.13;6.05;;;;;;;18.49;54.14;94644.60;1674063;83;21099;-62
2021/09/12 08:37:34;;;;;;;10.08;6.70;;;;;;;18.61;55.51;94635.78;1700512;83;20993;-61
2021/09/12 08:40:04;;;;;;;10.13;6.60;;;;;;;18.75;54.93;94639.00;1681753;83;21156;-62
2021/09/12 08:42:31;;;;;;;17.07;7.70;;;;;;;18.92;55.11;94640.42;1691667;83;21127;-63
2021/09/12 08:44:58;;;;;;;9.90;7.00;;;;;;;19.06;54.88;94633.88;1693818;83;21095;-65
2021/09/12 08:47:28;;;;;;;8.93;6.37;;;;;;;19.21;54.79;94627.46;1694843;82;21013;-62
2021/09/12 08:49:55;;;;;;;9.85;6.00;;;;;;;19.34;53.82;94625.69;1693420;83;21037;-62
2021/09/12 08:52:22;;;;;;;13.90;6.97;;;;;;;19.52;53.19;94630.77;1697092;83;21079;-63
2021/09/12 08:54:49;;;;;;;11.60;6.12;;;;;;;19.65;52.78;94628.86;1694718;83;21668;-61
2021/09/12 08:57:16;;;;;;;15.25;6.95;;;;;;;19.76;52.70;94619.84;1705064;83;21045;-62
2021/09/12 08:59:50;;;;;;;8.88;5.92;;;;;;;19.91;52.44;94620.33;1680567;84;21533;-61
2021/09/12 09:02:25;;;;;;;10.13;5.42;;;;;;;20.03;53.25;94618.30;1691686;84;21067;-62
2021/09/12 09:05:03;;;;;;;15.70;6.30;;;;;;;20.15;52.39;94623.34;1683211;83;21978;-60
2021/09/12 09:07:31;;;;;;;13.80;6.53;;;;;;;20.27;51.21;94619.26;1695205;83;21058;-62
2021/09/12 09:09:59;;;;;;;12.25;6.95;;;;;;;20.37;50.79;94617.72;1690087;83;21052;-59
2021/09/12 09:12:36;;;;;;;11.68;6.53;;;;;;;20.49;50.79;94614.36;1684229;84;21564;-61
2021/09/12 09:15:08;;;;;;;11.03;6.10;;;;;;;20.64;50.12;94618.23;1696951;83;21037;-63
2021/09/12 09:17:49;;;;;;;12.33;7.25;;;;;;;20.74;50.08;94609.67;1687683;83;21127;-61
2021/09/12 09:20:30;;;;;;;8.98;6.97;;;;;;;20.86;50.41;94611.15;1689422;83;21126;-60
2021/09/12 09:23:00;;;;;;;12.07;6.85;;;;;;;21.04;49.86;94606.34;1707023;83;21041;-60
2021/09/12 09:25:29;;;;;;;9.73;6.58;;;;;;;21.22;49.99;94607.88;1665856;84;21600;-60
2021/09/12 09:28:04;;;;;;;12.47;6.60;;;;;;;21.41;49.93;94604.56;1693637;83;21105;-62
2021/09/12 09:30:37;;;;;;;12.10;6.70;;;;;;;21.66;49.26;94607.56;1683818;84;21771;-61
2021/09/12 09:33:28;;;;;;;8.90;6.85;;;;;;;21.92;48.32;94602.88;1683671;84;21052;-63
2021/09/12 09:36:04;;;;;;;14.65;6.62;;;;;;;22.13;48.22;94601.24;1696959;83;20982;-61
2021/09/12 09:38:35;;;;;;;7.92;6.10;;;;;;;22.43;47.59;94599.16;1691069;83;21021;-61
2021/09/12 09:41:12;;;;;;;12.55;6.55;;;;;;;22.74;47.89;94599.94;1686459;83;21072;-62
2021/09/12 09:43:52;;;;;;;12.03;5.95;;;;;;;23.00;46.15;94587.45;1688324;83;21133;-61
2021/09/12 09:46:38;;;;;;;9.08;5.85;;;;;;;23.30;45.51;94590.11;1687968;83;21120;-61
2021/09/12 09:49:26;;;;;;;9.68;5.80;;;;;;;23.59;43.26;94587.09;1688996;83;21109;-61
2021/09/12 09:52:00;;;;;;;9.08;5.47;;;;;;;23.89;42.55;94582.02;1713069;83;20971;-61
2021/09/12 09:54:32;;;;;;;9.93;7.22;;;;;;;24.19;41.24;94590.27;1700964;83;21549;-62
2021/09/12 09:56:59;;;;;;;8.33;5.83;;;;;;;24.54;40.75;94583.51;1690692;83;21161;-62
2021/09/12 09:59:27;;;;;;;7.15;5.47;;;;;;;25.00;40.17;94579.33;1695759;83;21026;-66
2021/09/12 10:01:56;;;;;;;8.68;4.83;;;;;;;25.51;38.38;94574.83;1677644;83;21046;-62
2021/09/12 10:04:26;;;;;;;12.63;5.62;;;;;;;26.00;38.19;94577.86;1694386;83;21092;-63
2021/09/12 10:06:53;;;;;;;9.15;4.80;;;;;;;26.44;35.23;94573.84;1706452;82;21116;-63
2021/09/12 10:09:21;;;;;;;8.03;5.05;;;;;;;26.84;34.76;94572.20;1708193;82;21160;-62
2021/09/12 10:11:55;;;;;;;7.40;4.58;;;;;;;27.32;33.55;94571.30;1685773;83;21007;-62
2021/09/12 10:14:30;;;;;;;14.00;4.62;;;;;;;27.77;32.69;94572.83;1688040;84;21110;-63
2021/09/12 10:16:57;;;;;;;10.75;4.22;;;;;;;28.16;32.04;94570.86;1687170;83;21609;-63
2021/09/12 10:19:37;;;;;;;11.05;4.20;;;;;;;28.53;28.45;94575.77;1698007;83;21123;-64
2021/09/12 10:22:16;;;;;;;12.43;4.12;;;;;;;28.94;27.33;94573.23;1682592;83;21878;-63
2021/09/12 10:25:08;;;;;;;4.85;3.20;;;;;;;29.75;24.01;94574.87;1697366;83;21095;-61
2021/09/12 10:27:39;;;;;;;10.95;3.47;;;;;;;29.75;24.01;94574.87;1689981;83;21090;-62
2021/09/12 10:30:38;;;;;;;3.80;2.80;;;;;;;30.05;23.64;94571.17;1686844;83;21306;-63
2021/09/12 10:33:17;;;;;;;7.62;4.15;;;;;;;30.28;21.97;94567.48;1686430;83;22208;-62
2021/09/12 10:35:54;;;;;;;11.18;3.30;;;;;;;30.63;23.95;94569.08;1675789;84;21773;-63
2021/09/12 10:38:36;;;;;;;2.92;2.22;;;;;;;31.03;23.68;94561.74;1692989;83;20993;-63
2021/09/12 10:41:08;;;;;;;8.53;3.62;;;;;;;31.29;19.56;94561.83;1687951;83;21632;-63
2021/09/12 10:43:44;;;;;;;9.53;4.33;;;;;;;31.47;20.44;94553.34;1669421;83;21041;-63
2021/09/12 10:46:16;;;;;;;8.25;3.70;;;;;;;31.71;23.41;94556.73;1688925;83;21166;-63
2021/09/12 10:48:53;;;;;;;6.75;2.80;;;;;;;31.95;22.96;94557.22;1687965;82;21155;-64
2021/09/12 10:51:27;;;;;;;6.80;3.27;;;;;;;32.06;20.33;94556.67;1696737;83;21499;-64
2021/09/12 10:54:01;;;;;;;8.25;4.53;;;;;;;32.17;20.56;94556.12;1693678;83;21161;-63
2021/09/12 10:56:29;;;;;;;7.83;3.50;;;;;;;32.37;20.79;94547.72;1682140;83;21093;-63
2021/09/12 10:59:10;;;;;;;5.55;3.22;;;;;;;32.62;20.32;94558.95;1686942;83;22224;-62
2021/09/12 11:01:45;;;;;;;5.70;3.57;;;;;;;32.72;20.49;94552.64;1692650;83;21744;-62
2021/09/12 11:04:15;;;;;;;5.33;2.72;;;;;;;32.66;20.62;94552.83;1702518;83;21059;-61
2021/09/12 11:06:44;;;;;;;4.92;3.37;;;;;;;32.61;20.41;94558.14;1681361;83;21009;-63
2021/09/12 11:09:21;;;;;;;8.75;3.65;;;;;;;32.65;21.66;94552.09;1713500;83;21035;-61
2021/09/12 11:11:56;;;;;;;5.28;3.75;;;;;;;32.77;21.31;94553.70;1677570;83;20997;-62
2021/09/12 11:14:23;;;;;;;4.62;3.20;;;;;;;32.78;21.58;94547.39;1700624;83;21769;-63
2021/09/12 11:16:51;;;;;;;4.60;3.12;;;;;;;33.03;20.42;94549.97;1705415;83;21050;-64
2021/09/12 11:19:20;;;;;;;6.28;3.77;;;;;;;33.29;20.68;94544.83;1697871;83;21013;-64
2021/09/12 11:21:52;;;;;;;6.50;3.80;;;;;;;33.48;21.53;94549.81;1699394;83;21052;-62
2021/09/12 11:24:22;;;;;;;13.55;4.58;;;;;;;33.74;20.84;94541.00;1701031;83;21002;-62
2021/09/12 11:26:56;;;;;;;9.05;4.97;;;;;;;33.98;20.87;94544.22;1680817;83;21205;-63
2021/09/12 11:29:34;;;;;;;8.05;4.47;;;;;;;34.24;22.17;94537.55;1677778;84;21022;-64
2021/09/12 11:32:14;;;;;;;8.23;4.90;;;;;;;34.26;21.73;94539.11;1696172;83;21091;-63